sensor_id;sensor_type;location;lat;lon;timestamp;P1;durP1;ratioP1;P2;durP2;ratioP2
69714;SDS011;56981;53.532;49.398;2023-11-21T00:00:23;6.00;;;2.22;;
69714;SDS011;56981;53.532;49.398;2023-11-21T00:02:50;2.05;;;1.90;;
69714;SDS011;56981;53.532;49.398;2023-11-21T00:05:18;3.42;;;2.25;;
69714;SDS011;56981;53.532;49.398;2023-11-21T00:07:44;2.88;;;1.90;;
69714;SDS011;56981;53.532;49.398;2023-11-21T00:10:11;1.95;;;1.75;;
69714;SDS011;56981;53.532;49.398;2023-11-21T00:12:39;1.60;;;1.48;;
69714;SDS011;56981;53.532;49.398;2023-11-21T00:15:08;2.70;;;1.67;;
69714;SDS011;56981;53.532;49.398;2023-11-21T00:17:38;3.28;;;2.10;;
69714;SDS011;56981;53.532;49.398;2023-11-21T00:20:05;3.97;;;2.05;;
69714;SDS011;56981;53.532;49.398;2023-11-21T00:22:33;2.28;;;1.85;;
69714;SDS011;56981;53.532;49.398;2023-11-21T00:25:00;3.20;;;1.83;;
69714;SDS011;56981;53.532;49.398;2023-11-21T00:27:27;3.78;;;2.17;;
69714;SDS011;56981;53.532;49.398;2023-11-21T00:29:53;2.83;;;1.88;;
69714;SDS011;56981;53.532;49.398;2023-11-21T00:32:20;3.38;;;1.80;;
69714;SDS011;56981;53.532;49.398;2023-11-21T00:34:46;2.10;;;1.65;;
69714;SDS011;56981;53.532;49.398;2023-11-21T00:37:12;1.60;;;1.13;;
69714;SDS011;56981;53.532;49.398;2023-11-21T00:39:38;2.60;;;2.00;;
69714;SDS011;56981;53.532;49.398;2023-11-21T00:42:05;4.03;;;2.00;;
69714;SDS011;56981;53.532;49.398;2023-11-21T00:44:32;4.75;;;2.22;;
69714;SDS011;56981;53.532;49.398;2023-11-21T00:46:59;2.45;;;2.17;;
69714;SDS011;56981;53.532;49.398;2023-11-21T00:49:26;1.98;;;1.65;;
69714;SDS011;56981;53.532;49.398;2023-11-21T00:51:53;2.88;;;2.15;;
69714;SDS011;56981;53.532;49.398;2023-11-21T00:54:19;3.97;;;2.20;;
69714;SDS011;56981;53.532;49.398;2023-11-21T00:56:45;2.72;;;2.13;;
69714;SDS011;56981;53.532;49.398;2023-11-21T00:59:13;2.42;;;1.85;;
69714;SDS011;56981;53.532;49.398;2023-11-21T01:01:39;4.03;;;2.17;;
69714;SDS011;56981;53.532;49.398;2023-11-21T01:04:05;1.85;;;1.55;;
69714;SDS011;56981;53.532;49.398;2023-11-21T01:06:35;4.65;;;1.83;;
69714;SDS011;56981;53.532;49.398;2023-11-21T01:09:01;3.60;;;2.00;;
69714;SDS011;56981;53.532;49.398;2023-11-21T01:11:29;3.35;;;2.20;;
69714;SDS011;56981;53.532;49.398;2023-11-21T01:13:55;5.05;;;2.42;;
69714;SDS011;56981;53.532;49.398;2023-11-21T01:16:21;3.47;;;2.22;;
69714;SDS011;56981;53.532;49.398;2023-11-21T01:18:47;2.50;;;2.13;;
69714;SDS011;56981;53.532;49.398;2023-11-21T01:21:14;3.15;;;2.05;;
69714;SDS011;56981;53.532;49.398;2023-11-21T01:23:40;3.45;;;2.30;;
69714;SDS011;56981;53.532;49.398;2023-11-21T01:26:06;2.70;;;2.28;;
69714;SDS011;56981;53.532;49.398;2023-11-21T01:28:33;1.85;;;1.63;;
69714;SDS011;56981;53.532;49.398;2023-11-21T01:30:59;5.13;;;2.45;;
69714;SDS011;56981;53.532;49.398;2023-11-21T01:33:25;3.00;;;2.30;;
69714;SDS011;56981;53.532;49.398;2023-11-21T01:35:51;3.40;;;2.20;;
69714;SDS011;56981;53.532;49.398;2023-11-21T01:38:20;4.78;;;2.40;;
69714;SDS011;56981;53.532;49.398;2023-11-21T01:40:47;2.80;;;2.30;;
69714;SDS011;56981;53.532;49.398;2023-11-21T01:43:14;3.33;;;2.25;;
69714;SDS011;56981;53.532;49.398;2023-11-21T01:45:40;2.75;;;1.95;;
69714;SDS011;56981;53.532;49.398;2023-11-21T01:48:06;3.03;;;2.45;;
69714;SDS011;56981;53.532;49.398;2023-11-21T01:50:33;3.58;;;2.72;;
69714;SDS011;56981;53.532;49.398;2023-11-21T01:53:00;4.55;;;2.42;;
69714;SDS011;56981;53.532;49.398;2023-11-21T01:55:27;2.05;;;1.52;;
69714;SDS011;56981;53.532;49.398;2023-11-21T01:57:54;5.18;;;2.33;;
69714;SDS011;56981;53.532;49.398;2023-11-21T02:00:21;2.72;;;2.35;;
69714;SDS011;56981;53.532;49.398;2023-11-21T02:02:47;5.05;;;2.58;;
69714;SDS011;56981;53.532;49.398;2023-11-21T02:05:15;3.20;;;2.67;;
69714;SDS011;56981;53.532;49.398;2023-11-21T02:07:44;3.85;;;2.30;;
69714;SDS011;56981;53.532;49.398;2023-11-21T02:10:16;3.13;;;2.47;;
69714;SDS011;56981;53.532;49.398;2023-11-21T02:12:42;3.35;;;2.60;;
69714;SDS011;56981;53.532;49.398;2023-11-21T02:15:10;3.05;;;2.03;;
69714;SDS011;56981;53.532;49.398;2023-11-21T02:17:43;3.15;;;1.67;;
69714;SDS011;56981;53.532;49.398;2023-11-21T02:20:13;4.03;;;2.78;;
69714;SDS011;56981;53.532;49.398;2023-11-21T02:22:55;5.00;;;2.92;;
69714;SDS011;56981;53.532;49.398;2023-11-21T02:27:59;6.88;;;2.42;;
69714;SDS011;56981;53.532;49.398;2023-11-21T02:30:27;2.92;;;2.40;;
69714;SDS011;56981;53.532;49.398;2023-11-21T02:32:53;3.53;;;2.30;;
69714;SDS011;56981;53.532;49.398;2023-11-21T02:35:20;4.25;;;3.00;;
69714;SDS011;56981;53.532;49.398;2023-11-21T02:37:48;2.83;;;2.53;;
69714;SDS011;56981;53.532;49.398;2023-11-21T02:40:16;3.63;;;2.55;;
69714;SDS011;56981;53.532;49.398;2023-11-21T02:42:46;4.93;;;2.70;;
69714;SDS011;56981;53.532;49.398;2023-11-21T02:45:14;7.32;;;2.95;;
69714;SDS011;56981;53.532;49.398;2023-11-21T02:47:42;4.45;;;2.63;;
69714;SDS011;56981;53.532;49.398;2023-11-21T02:50:09;4.05;;;2.50;;
69714;SDS011;56981;53.532;49.398;2023-11-21T02:52:36;4.82;;;3.03;;
69714;SDS011;56981;53.532;49.398;2023-11-21T02:55:03;3.17;;;2.53;;
69714;SDS011;56981;53.532;49.398;2023-11-21T02:57:29;3.30;;;2.45;;
69714;SDS011;56981;53.532;49.398;2023-11-21T02:59:56;4.55;;;2.80;;
69714;SDS011;56981;53.532;49.398;2023-11-21T03:02:22;4.95;;;2.70;;
69714;SDS011;56981;53.532;49.398;2023-11-21T03:04:48;3.25;;;2.95;;
69714;SDS011;56981;53.532;49.398;2023-11-21T03:07:15;5.13;;;2.70;;
69714;SDS011;56981;53.532;49.398;2023-11-21T03:09:43;4.05;;;2.88;;
69714;SDS011;56981;53.532;49.398;2023-11-21T03:12:10;4.95;;;2.90;;
69714;SDS011;56981;53.532;49.398;2023-11-21T03:14:38;4.25;;;2.63;;
69714;SDS011;56981;53.532;49.398;2023-11-21T03:17:05;3.88;;;3.10;;
69714;SDS011;56981;53.532;49.398;2023-11-21T03:19:32;4.82;;;3.15;;
69714;SDS011;56981;53.532;49.398;2023-11-21T03:21:58;3.78;;;2.95;;
69714;SDS011;56981;53.532;49.398;2023-11-21T03:24:25;4.05;;;3.10;;
69714;SDS011;56981;53.532;49.398;2023-11-21T03:26:52;3.53;;;3.20;;
69714;SDS011;56981;53.532;49.398;2023-11-21T03:29:18;3.97;;;2.28;;
69714;SDS011;56981;53.532;49.398;2023-11-21T03:31:45;9.70;;;4.50;;
69714;SDS011;56981;53.532;49.398;2023-11-21T03:34:14;4.45;;;3.08;;
69714;SDS011;56981;53.532;49.398;2023-11-21T03:36:53;4.68;;;3.13;;
69714;SDS011;56981;53.532;49.398;2023-11-21T03:39:20;5.32;;;3.33;;
69714;SDS011;56981;53.532;49.398;2023-11-21T03:41:48;6.90;;;3.67;;
69714;SDS011;56981;53.532;49.398;2023-11-21T03:44:14;7.65;;;4.80;;
69714;SDS011;56981;53.532;49.398;2023-11-21T03:46:40;9.73;;;5.38;;
69714;SDS011;56981;53.532;49.398;2023-11-21T03:49:09;8.48;;;5.53;;
69714;SDS011;56981;53.532;49.398;2023-11-21T03:51:36;11.85;;;5.55;;
69714;SDS011;56981;53.532;49.398;2023-11-21T03:54:05;7.65;;;4.03;;
69714;SDS011;56981;53.532;49.398;2023-11-21T03:56:34;7.72;;;4.35;;
69714;SDS011;56981;53.532;49.398;2023-11-21T03:59:00;6.55;;;4.18;;
69714;SDS011;56981;53.532;49.398;2023-11-21T04:01:26;4.82;;;3.63;;
69714;SDS011;56981;53.532;49.398;2023-11-21T04:03:52;6.05;;;4.15;;
69714;SDS011;56981;53.532;49.398;2023-11-21T04:06:18;6.72;;;4.32;;
69714;SDS011;56981;53.532;49.398;2023-11-21T04:08:44;7.03;;;4.35;;
69714;SDS011;56981;53.532;49.398;2023-11-21T04:11:11;7.35;;;4.70;;
69714;SDS011;56981;53.532;49.398;2023-11-21T04:13:40;7.05;;;4.28;;
69714;SDS011;56981;53.532;49.398;2023-11-21T04:16:08;6.43;;;4.25;;
69714;SDS011;56981;53.532;49.398;2023-11-21T04:18:37;11.32;;;4.68;;
69714;SDS011;56981;53.532;49.398;2023-11-21T04:21:05;7.20;;;4.38;;
69714;SDS011;56981;53.532;49.398;2023-11-21T04:23:31;7.95;;;4.20;;
69714;SDS011;56981;53.532;49.398;2023-11-21T04:25:57;7.05;;;3.95;;
69714;SDS011;56981;53.532;49.398;2023-11-21T04:28:24;7.93;;;4.85;;
69714;SDS011;56981;53.532;49.398;2023-11-21T04:30:50;10.30;;;4.50;;
69714;SDS011;56981;53.532;49.398;2023-11-21T04:33:16;5.75;;;4.03;;
69714;SDS011;56981;53.532;49.398;2023-11-21T04:35:43;6.85;;;4.35;;
69714;SDS011;56981;53.532;49.398;2023-11-21T04:38:09;6.93;;;4.05;;
69714;SDS011;56981;53.532;49.398;2023-11-21T04:40:35;6.07;;;4.25;;
69714;SDS011;56981;53.532;49.398;2023-11-21T04:43:01;6.60;;;4.38;;
69714;SDS011;56981;53.532;49.398;2023-11-21T04:45:27;6.22;;;3.83;;
69714;SDS011;56981;53.532;49.398;2023-11-21T04:47:53;8.20;;;4.32;;
69714;SDS011;56981;53.532;49.398;2023-11-21T04:50:19;8.45;;;5.00;;
69714;SDS011;56981;53.532;49.398;2023-11-21T04:52:45;7.80;;;4.38;;
69714;SDS011;56981;53.532;49.398;2023-11-21T04:55:12;8.02;;;4.05;;
69714;SDS011;56981;53.532;49.398;2023-11-21T04:57:39;8.00;;;4.10;;
69714;SDS011;56981;53.532;49.398;2023-11-21T05:00:10;7.15;;;3.92;;
69714;SDS011;56981;53.532;49.398;2023-11-21T05:02:38;6.30;;;4.57;;
69714;SDS011;56981;53.532;49.398;2023-11-21T05:05:05;6.63;;;5.10;;
69714;SDS011;56981;53.532;49.398;2023-11-21T05:07:33;8.82;;;4.03;;
69714;SDS011;56981;53.532;49.398;2023-11-21T05:10:00;7.70;;;4.60;;
69714;SDS011;56981;53.532;49.398;2023-11-21T05:12:30;7.78;;;5.22;;
69714;SDS011;56981;53.532;49.398;2023-11-21T05:15:06;11.32;;;4.82;;
69714;SDS011;56981;53.532;49.398;2023-11-21T05:17:37;7.97;;;5.40;;
69714;SDS011;56981;53.532;49.398;2023-11-21T05:20:07;5.88;;;4.25;;
69714;SDS011;56981;53.532;49.398;2023-11-21T05:22:35;8.32;;;5.22;;
69714;SDS011;56981;53.532;49.398;2023-11-21T05:25:02;8.40;;;4.70;;
69714;SDS011;56981;53.532;49.398;2023-11-21T05:27:29;9.57;;;5.05;;
69714;SDS011;56981;53.532;49.398;2023-11-21T05:29:56;8.85;;;4.63;;
69714;SDS011;56981;53.532;49.398;2023-11-21T05:32:24;8.60;;;5.07;;
69714;SDS011;56981;53.532;49.398;2023-11-21T05:34:51;8.45;;;5.40;;
69714;SDS011;56981;53.532;49.398;2023-11-21T05:37:17;9.75;;;6.07;;
69714;SDS011;56981;53.532;49.398;2023-11-21T05:39:44;10.45;;;5.95;;
69714;SDS011;56981;53.532;49.398;2023-11-21T05:42:10;8.30;;;5.38;;
69714;SDS011;56981;53.532;49.398;2023-11-21T05:44:41;9.30;;;5.32;;
69714;SDS011;56981;53.532;49.398;2023-11-21T05:47:09;9.55;;;6.20;;
69714;SDS011;56981;53.532;49.398;2023-11-21T05:49:36;9.30;;;5.50;;
69714;SDS011;56981;53.532;49.398;2023-11-21T05:52:02;8.55;;;5.47;;
69714;SDS011;56981;53.532;49.398;2023-11-21T05:54:29;8.35;;;5.47;;
69714;SDS011;56981;53.532;49.398;2023-11-21T05:56:55;10.13;;;5.60;;
69714;SDS011;56981;53.532;49.398;2023-11-21T05:59:22;17.50;;;8.20;;
69714;SDS011;56981;53.532;49.398;2023-11-21T06:01:48;16.98;;;6.85;;
69714;SDS011;56981;53.532;49.398;2023-11-21T06:04:15;23.15;;;9.85;;
69714;SDS011;56981;53.532;49.398;2023-11-21T06:06:41;23.45;;;8.63;;
69714;SDS011;56981;53.532;49.398;2023-11-21T06:09:07;21.40;;;7.80;;
69714;SDS011;56981;53.532;49.398;2023-11-21T06:11:35;20.80;;;8.07;;
69714;SDS011;56981;53.532;49.398;2023-11-21T06:14:01;14.15;;;6.38;;
69714;SDS011;56981;53.532;49.398;2023-11-21T06:16:28;12.82;;;5.40;;
69714;SDS011;56981;53.532;49.398;2023-11-21T06:18:54;10.25;;;5.57;;
69714;SDS011;56981;53.532;49.398;2023-11-21T06:21:20;7.20;;;5.00;;
69714;SDS011;56981;53.532;49.398;2023-11-21T06:23:47;12.02;;;6.22;;
69714;SDS011;56981;53.532;49.398;2023-11-21T06:26:13;11.88;;;6.72;;
69714;SDS011;56981;53.532;49.398;2023-11-21T06:28:40;15.50;;;8.52;;
69714;SDS011;56981;53.532;49.398;2023-11-21T06:31:06;18.90;;;9.68;;
69714;SDS011;56981;53.532;49.398;2023-11-21T06:33:33;17.17;;;9.40;;
69714;SDS011;56981;53.532;49.398;2023-11-21T06:35:59;21.92;;;10.73;;
69714;SDS011;56981;53.532;49.398;2023-11-21T06:38:28;20.48;;;11.20;;
69714;SDS011;56981;53.532;49.398;2023-11-21T06:40:57;19.88;;;11.00;;
69714;SDS011;56981;53.532;49.398;2023-11-21T06:43:24;22.13;;;11.65;;
69714;SDS011;56981;53.532;49.398;2023-11-21T06:45:51;23.23;;;9.73;;
69714;SDS011;56981;53.532;49.398;2023-11-21T06:48:18;19.17;;;9.20;;
69714;SDS011;56981;53.532;49.398;2023-11-21T06:50:44;17.10;;;10.40;;
69714;SDS011;56981;53.532;49.398;2023-11-21T06:53:12;18.77;;;9.88;;
69714;SDS011;56981;53.532;49.398;2023-11-21T06:55:39;17.65;;;8.57;;
69714;SDS011;56981;53.532;49.398;2023-11-21T06:58:05;14.43;;;8.18;;
69714;SDS011;56981;53.532;49.398;2023-11-21T07:00:31;14.88;;;8.13;;
69714;SDS011;56981;53.532;49.398;2023-11-21T07:02:57;11.10;;;6.97;;
69714;SDS011;56981;53.532;49.398;2023-11-21T07:05:23;14.65;;;7.60;;
69714;SDS011;56981;53.532;49.398;2023-11-21T07:07:49;14.68;;;7.55;;
69714;SDS011;56981;53.532;49.398;2023-11-21T07:10:22;13.55;;;7.78;;
69714;SDS011;56981;53.532;49.398;2023-11-21T07:12:51;11.15;;;6.90;;
69714;SDS011;56981;53.532;49.398;2023-11-21T07:15:17;12.13;;;7.15;;
69714;SDS011;56981;53.532;49.398;2023-11-21T07:17:44;14.80;;;7.85;;
69714;SDS011;56981;53.532;49.398;2023-11-21T07:20:12;16.20;;;7.72;;
69714;SDS011;56981;53.532;49.398;2023-11-21T07:22:40;12.88;;;8.02;;
69714;SDS011;56981;53.532;49.398;2023-11-21T07:25:07;12.27;;;6.80;;
69714;SDS011;56981;53.532;49.398;2023-11-21T07:27:34;13.80;;;7.07;;
69714;SDS011;56981;53.532;49.398;2023-11-21T07:30:02;12.82;;;7.18;;
69714;SDS011;56981;53.532;49.398;2023-11-21T07:32:33;11.35;;;6.50;;
69714;SDS011;56981;53.532;49.398;2023-11-21T07:34:59;9.50;;;6.32;;
69714;SDS011;56981;53.532;49.398;2023-11-21T07:37:26;11.27;;;6.55;;
69714;SDS011;56981;53.532;49.398;2023-11-21T07:39:54;11.52;;;7.07;;
69714;SDS011;56981;53.532;49.398;2023-11-21T07:42:23;11.50;;;6.15;;
69714;SDS011;56981;53.532;49.398;2023-11-21T07:44:52;9.07;;;6.03;;
69714;SDS011;56981;53.532;49.398;2023-11-21T07:47:18;9.75;;;5.88;;
69714;SDS011;56981;53.532;49.398;2023-11-21T07:49:47;9.82;;;5.15;;
69714;SDS011;56981;53.532;49.398;2023-11-21T07:52:13;6.70;;;5.10;;
69714;SDS011;56981;53.532;49.398;2023-11-21T07:54:41;6.32;;;4.38;;
69714;SDS011;56981;53.532;49.398;2023-11-21T07:57:08;7.00;;;4.43;;
69714;SDS011;56981;53.532;49.398;2023-11-21T07:59:37;9.23;;;3.92;;
69714;SDS011;56981;53.532;49.398;2023-11-21T08:02:03;7.38;;;4.80;;
69714;SDS011;56981;53.532;49.398;2023-11-21T08:04:30;7.72;;;4.85;;
69714;SDS011;56981;53.532;49.398;2023-11-21T08:06:58;6.45;;;4.20;;
69714;SDS011;56981;53.532;49.398;2023-11-21T08:09:24;6.93;;;4.90;;
69714;SDS011;56981;53.532;49.398;2023-11-21T08:11:51;6.88;;;4.18;;
69714;SDS011;56981;53.532;49.398;2023-11-21T08:14:22;8.45;;;5.43;;
69714;SDS011;56981;53.532;49.398;2023-11-21T08:16:51;9.70;;;5.93;;
69714;SDS011;56981;53.532;49.398;2023-11-21T08:19:18;9.25;;;5.47;;
69714;SDS011;56981;53.532;49.398;2023-11-21T08:21:44;11.93;;;6.70;;
69714;SDS011;56981;53.532;49.398;2023-11-21T08:24:11;10.70;;;6.13;;
69714;SDS011;56981;53.532;49.398;2023-11-21T08:26:37;8.88;;;5.57;;
69714;SDS011;56981;53.532;49.398;2023-11-21T08:29:04;10.35;;;6.75;;
69714;SDS011;56981;53.532;49.398;2023-11-21T08:31:32;11.20;;;6.88;;
69714;SDS011;56981;53.532;49.398;2023-11-21T08:33:58;12.20;;;7.07;;
69714;SDS011;56981;53.532;49.398;2023-11-21T08:36:28;12.23;;;6.57;;
69714;SDS011;56981;53.532;49.398;2023-11-21T08:38:54;10.80;;;7.07;;
69714;SDS011;56981;53.532;49.398;2023-11-21T08:41:20;13.02;;;6.55;;
69714;SDS011;56981;53.532;49.398;2023-11-21T08:43:47;11.90;;;5.25;;
69714;SDS011;56981;53.532;49.398;2023-11-21T08:46:16;10.75;;;5.78;;
69714;SDS011;56981;53.532;49.398;2023-11-21T08:48:43;8.65;;;5.40;;
69714;SDS011;56981;53.532;49.398;2023-11-21T08:51:10;8.63;;;5.05;;
69714;SDS011;56981;53.532;49.398;2023-11-21T08:53:39;8.05;;;5.00;;
69714;SDS011;56981;53.532;49.398;2023-11-21T08:56:14;8.57;;;4.03;;
69714;SDS011;56981;53.532;49.398;2023-11-21T08:58:44;7.25;;;4.47;;
69714;SDS011;56981;53.532;49.398;2023-11-21T09:01:10;7.43;;;4.75;;
69714;SDS011;56981;53.532;49.398;2023-11-21T09:03:38;5.55;;;3.97;;
69714;SDS011;56981;53.532;49.398;2023-11-21T09:06:04;7.10;;;4.13;;
69714;SDS011;56981;53.532;49.398;2023-11-21T09:08:31;6.63;;;3.70;;
69714;SDS011;56981;53.532;49.398;2023-11-21T09:10:57;6.75;;;4.10;;
69714;SDS011;56981;53.532;49.398;2023-11-21T09:13:26;7.43;;;3.70;;
69714;SDS011;56981;53.532;49.398;2023-11-21T09:15:53;7.57;;;3.63;;
69714;SDS011;56981;53.532;49.398;2023-11-21T09:18:19;6.82;;;3.97;;
69714;SDS011;56981;53.532;49.398;2023-11-21T09:20:45;6.13;;;4.03;;
69714;SDS011;56981;53.532;49.398;2023-11-21T09:23:12;8.05;;;4.07;;
69714;SDS011;56981;53.532;49.398;2023-11-21T09:25:38;5.15;;;3.63;;
69714;SDS011;56981;53.532;49.398;2023-11-21T09:28:05;6.68;;;4.20;;
69714;SDS011;56981;53.532;49.398;2023-11-21T09:30:37;6.53;;;3.97;;
69714;SDS011;56981;53.532;49.398;2023-11-21T09:33:04;4.85;;;3.40;;
69714;SDS011;56981;53.532;49.398;2023-11-21T09:35:37;5.90;;;3.50;;
69714;SDS011;56981;53.532;49.398;2023-11-21T09:38:06;5.18;;;3.63;;
69714;SDS011;56981;53.532;49.398;2023-11-21T09:40:39;5.60;;;3.40;;
69714;SDS011;56981;53.532;49.398;2023-11-21T09:43:06;9.35;;;3.63;;
69714;SDS011;56981;53.532;49.398;2023-11-21T09:45:46;5.45;;;3.35;;
69714;SDS011;56981;53.532;49.398;2023-11-21T09:48:16;5.93;;;3.88;;
69714;SDS011;56981;53.532;49.398;2023-11-21T09:50:43;7.72;;;4.40;;
69714;SDS011;56981;53.532;49.398;2023-11-21T09:55:53;6.82;;;4.22;;
69714;SDS011;56981;53.532;49.398;2023-11-21T09:58:20;6.35;;;4.13;;
69714;SDS011;56981;53.532;49.398;2023-11-21T10:00:50;7.55;;;5.47;;
69714;SDS011;56981;53.532;49.398;2023-11-21T10:03:19;9.35;;;6.22;;
69714;SDS011;56981;53.532;49.398;2023-11-21T10:05:45;13.77;;;7.35;;
69714;SDS011;56981;53.532;49.398;2023-11-21T10:08:15;5.85;;;4.13;;
69714;SDS011;56981;53.532;49.398;2023-11-21T10:10:45;7.82;;;3.55;;
69714;SDS011;56981;53.532;49.398;2023-11-21T10:13:15;3.58;;;2.28;;
69714;SDS011;56981;53.532;49.398;2023-11-21T10:15:49;5.80;;;3.45;;
69714;SDS011;56981;53.532;49.398;2023-11-21T10:18:23;6.00;;;3.55;;
69714;SDS011;56981;53.532;49.398;2023-11-21T10:20:53;9.43;;;4.43;;
69714;SDS011;56981;53.532;49.398;2023-11-21T10:23:21;5.43;;;3.15;;
69714;SDS011;56981;53.532;49.398;2023-11-21T10:25:48;5.07;;;3.13;;
69714;SDS011;56981;53.532;49.398;2023-11-21T10:28:16;4.57;;;3.42;;
69714;SDS011;56981;53.532;49.398;2023-11-21T10:30:46;9.30;;;3.88;;
69714;SDS011;56981;53.532;49.398;2023-11-21T10:33:12;3.47;;;2.60;;
69714;SDS011;56981;53.532;49.398;2023-11-21T10:35:48;5.32;;;3.20;;
69714;SDS011;56981;53.532;49.398;2023-11-21T10:38:21;3.60;;;2.58;;
69714;SDS011;56981;53.532;49.398;2023-11-21T10:40:49;4.18;;;3.47;;
69714;SDS011;56981;53.532;49.398;2023-11-21T10:43:17;5.05;;;2.90;;
69714;SDS011;56981;53.532;49.398;2023-11-21T10:45:44;5.90;;;4.40;;
69714;SDS011;56981;53.532;49.398;2023-11-21T10:48:11;4.45;;;3.20;;
69714;SDS011;56981;53.532;49.398;2023-11-21T10:50:43;4.45;;;2.85;;
69714;SDS011;56981;53.532;49.398;2023-11-21T10:53:12;7.55;;;4.00;;
69714;SDS011;56981;53.532;49.398;2023-11-21T10:55:39;5.95;;;3.83;;
69714;SDS011;56981;53.532;49.398;2023-11-21T10:58:06;5.82;;;3.42;;
69714;SDS011;56981;53.532;49.398;2023-11-21T11:00:33;8.18;;;4.47;;
69714;SDS011;56981;53.532;49.398;2023-11-21T11:03:00;7.68;;;4.47;;
69714;SDS011;56981;53.532;49.398;2023-11-21T11:05:29;7.25;;;4.07;;
69714;SDS011;56981;53.532;49.398;2023-11-21T11:08:04;7.25;;;4.10;;
69714;SDS011;56981;53.532;49.398;2023-11-21T11:10:31;8.57;;;4.88;;
69714;SDS011;56981;53.532;49.398;2023-11-21T11:12:58;8.00;;;4.45;;
69714;SDS011;56981;53.532;49.398;2023-11-21T11:15:25;10.25;;;6.10;;
69714;SDS011;56981;53.532;49.398;2023-11-21T11:17:53;8.30;;;4.60;;
69714;SDS011;56981;53.532;49.398;2023-11-21T11:20:24;12.50;;;5.30;;
69714;SDS011;56981;53.532;49.398;2023-11-21T11:23:14;12.60;;;5.53;;
69714;SDS011;56981;53.532;49.398;2023-11-21T11:34:28;10.15;;;5.40;;
69714;SDS011;56981;53.532;49.398;2023-11-21T11:37:02;30.55;;;13.35;;
69714;SDS011;56981;53.532;49.398;2023-11-21T11:39:30;11.65;;;5.75;;
69714;SDS011;56981;53.532;49.398;2023-11-21T11:42:02;13.57;;;7.38;;
69714;SDS011;56981;53.532;49.398;2023-11-21T11:47:27;7.93;;;5.05;;
69714;SDS011;56981;53.532;49.398;2023-11-21T11:52:50;8.40;;;4.55;;
69714;SDS011;56981;53.532;49.398;2023-11-21T11:55:19;7.57;;;4.40;;
69714;SDS011;56981;53.532;49.398;2023-11-21T11:57:53;6.78;;;3.90;;
69714;SDS011;56981;53.532;49.398;2023-11-21T12:02:55;7.88;;;4.07;;
69714;SDS011;56981;53.532;49.398;2023-11-21T12:05:29;9.20;;;4.32;;
69714;SDS011;56981;53.532;49.398;2023-11-21T12:08:09;13.90;;;6.45;;
69714;SDS011;56981;53.532;49.398;2023-11-21T12:10:38;10.23;;;4.68;;
69714;SDS011;56981;53.532;49.398;2023-11-21T12:13:11;12.85;;;6.80;;
69714;SDS011;56981;53.532;49.398;2023-11-21T12:15:40;12.95;;;5.70;;
69714;SDS011;56981;53.532;49.398;2023-11-21T12:18:07;18.83;;;8.20;;
69714;SDS011;56981;53.532;49.398;2023-11-21T12:20:33;16.08;;;6.78;;
69714;SDS011;56981;53.532;49.398;2023-11-21T12:23:12;12.68;;;6.00;;
69714;SDS011;56981;53.532;49.398;2023-11-21T12:25:44;15.20;;;6.90;;
69714;SDS011;56981;53.532;49.398;2023-11-21T12:28:10;11.60;;;5.97;;
69714;SDS011;56981;53.532;49.398;2023-11-21T12:30:40;8.00;;;5.20;;
69714;SDS011;56981;53.532;49.398;2023-11-21T12:33:06;13.15;;;5.72;;
69714;SDS011;56981;53.532;49.398;2023-11-21T12:35:34;13.20;;;6.40;;
69714;SDS011;56981;53.532;49.398;2023-11-21T12:38:01;12.60;;;6.18;;
69714;SDS011;56981;53.532;49.398;2023-11-21T12:40:28;18.90;;;7.85;;
69714;SDS011;56981;53.532;49.398;2023-11-21T12:42:58;12.00;;;6.60;;
69714;SDS011;56981;53.532;49.398;2023-11-21T12:45:27;10.73;;;6.47;;
69714;SDS011;56981;53.532;49.398;2023-11-21T12:48:04;11.52;;;6.85;;
69714;SDS011;56981;53.532;49.398;2023-11-21T12:50:34;12.82;;;6.90;;
69714;SDS011;56981;53.532;49.398;2023-11-21T12:53:03;15.80;;;6.93;;
69714;SDS011;56981;53.532;49.398;2023-11-21T12:55:31;12.75;;;6.70;;
69714;SDS011;56981;53.532;49.398;2023-11-21T12:58:03;12.73;;;6.55;;
69714;SDS011;56981;53.532;49.398;2023-11-21T13:03:08;13.88;;;6.97;;
69714;SDS011;56981;53.532;49.398;2023-11-21T13:05:38;12.25;;;6.22;;
69714;SDS011;56981;53.532;49.398;2023-11-21T13:08:08;14.55;;;7.65;;
69714;SDS011;56981;53.532;49.398;2023-11-21T13:10:38;15.75;;;7.32;;
69714;SDS011;56981;53.532;49.398;2023-11-21T13:13:12;13.55;;;7.15;;
69714;SDS011;56981;53.532;49.398;2023-11-21T13:15:52;12.13;;;6.25;;
69714;SDS011;56981;53.532;49.398;2023-11-21T13:18:24;9.13;;;5.38;;
69714;SDS011;56981;53.532;49.398;2023-11-21T13:20:55;12.73;;;7.43;;
69714;SDS011;56981;53.532;49.398;2023-11-21T13:23:22;11.35;;;6.35;;
69714;SDS011;56981;53.532;49.398;2023-11-21T13:25:49;7.97;;;4.35;;
69714;SDS011;56981;53.532;49.398;2023-11-21T13:28:16;14.38;;;5.60;;
69714;SDS011;56981;53.532;49.398;2023-11-21T13:30:44;10.68;;;5.85;;
69714;SDS011;56981;53.532;49.398;2023-11-21T13:33:10;12.43;;;7.05;;
69714;SDS011;56981;53.532;49.398;2023-11-21T13:35:43;11.45;;;7.00;;
69714;SDS011;56981;53.532;49.398;2023-11-21T13:38:18;13.00;;;6.22;;
69714;SDS011;56981;53.532;49.398;2023-11-21T13:40:50;10.07;;;5.97;;
69714;SDS011;56981;53.532;49.398;2023-11-21T13:43:20;12.10;;;6.05;;
69714;SDS011;56981;53.532;49.398;2023-11-21T13:45:50;14.48;;;8.15;;
69714;SDS011;56981;53.532;49.398;2023-11-21T13:48:21;14.85;;;7.38;;
69714;SDS011;56981;53.532;49.398;2023-11-21T13:50:57;13.88;;;6.13;;
69714;SDS011;56981;53.532;49.398;2023-11-21T13:53:34;18.00;;;8.93;;
69714;SDS011;56981;53.532;49.398;2023-11-21T13:56:03;19.55;;;9.68;;
69714;SDS011;56981;53.532;49.398;2023-11-21T13:58:29;18.52;;;8.63;;
69714;SDS011;56981;53.532;49.398;2023-11-21T14:01:14;23.88;;;9.75;;
69714;SDS011;56981;53.532;49.398;2023-11-21T14:04:00;20.48;;;10.02;;
69714;SDS011;56981;53.532;49.398;2023-11-21T14:06:48;20.60;;;10.15;;
69714;SDS011;56981;53.532;49.398;2023-11-21T14:09:18;16.60;;;8.60;;
69714;SDS011;56981;53.532;49.398;2023-11-21T14:14:23;18.10;;;8.32;;
69714;SDS011;56981;53.532;49.398;2023-11-21T14:16:51;18.92;;;8.88;;
69714;SDS011;56981;53.532;49.398;2023-11-21T14:19:18;13.70;;;7.82;;
69714;SDS011;56981;53.532;49.398;2023-11-21T14:21:45;13.15;;;6.70;;
69714;SDS011;56981;53.532;49.398;2023-11-21T14:24:14;15.07;;;6.68;;
69714;SDS011;56981;53.532;49.398;2023-11-21T14:26:44;16.40;;;8.65;;
69714;SDS011;56981;53.532;49.398;2023-11-21T14:29:15;17.20;;;8.65;;
69714;SDS011;56981;53.532;49.398;2023-11-21T14:31:46;11.48;;;6.45;;
69714;SDS011;56981;53.532;49.398;2023-11-21T14:34:13;14.48;;;7.03;;
69714;SDS011;56981;53.532;49.398;2023-11-21T14:36:40;9.88;;;5.30;;
69714;SDS011;56981;53.532;49.398;2023-11-21T14:39:06;13.77;;;7.22;;
69714;SDS011;56981;53.532;49.398;2023-11-21T14:41:36;14.40;;;8.07;;
69714;SDS011;56981;53.532;49.398;2023-11-21T14:44:04;15.60;;;7.60;;
69714;SDS011;56981;53.532;49.398;2023-11-21T14:46:32;15.80;;;7.80;;
69714;SDS011;56981;53.532;49.398;2023-11-21T14:49:00;10.57;;;5.45;;
69714;SDS011;56981;53.532;49.398;2023-11-21T14:51:48;13.98;;;8.00;;
69714;SDS011;56981;53.532;49.398;2023-11-21T14:54:29;13.15;;;6.65;;
69714;SDS011;56981;53.532;49.398;2023-11-21T14:57:12;14.60;;;7.32;;
69714;SDS011;56981;53.532;49.398;2023-11-21T14:59:45;9.00;;;5.80;;
69714;SDS011;56981;53.532;49.398;2023-11-21T15:02:15;11.32;;;5.90;;